createdAt,value
2023-05-10T00:02:39.877Z,100678.75
2023-05-10T00:05:42.803Z,100674.66
2023-05-10T00:08:46.456Z,100675.81
2023-05-10T00:11:49.023Z,100667.41
2023-05-10T00:14:51.360Z,100667.63
2023-05-10T00:17:54.063Z,100662.62
2023-05-10T00:20:56.396Z,100665.34
2023-05-10T00:23:59.055Z,100670.94
2023-05-10T00:27:01.735Z,100675.59
2023-05-10T00:30:04.571Z,100670.53
2023-05-10T00:33:07.106Z,100666.31
2023-05-10T00:36:09.902Z,100666.63
2023-05-10T00:39:12.174Z,100659.06
2023-05-10T00:42:14.756Z,100666.06
2023-05-10T00:45:17.684Z,100666.44
2023-05-10T00:48:20.631Z,100663.19
2023-05-10T00:51:23.060Z,100668.50
2023-05-10T00:54:25.754Z,100671.34
2023-05-10T00:57:28.102Z,100658.25
2023-05-10T01:00:30.957Z,100660.19
2023-05-10T01:03:33.656Z,100662.00
2023-05-10T01:06:36.441Z,100658.75
2023-05-10T01:09:38.860Z,100658.19
2023-05-10T01:12:42.471Z,100660.22
2023-05-10T01:15:45.880Z,100656.09
2023-05-10T01:18:49.460Z,100662.19
2023-05-10T01:21:55.435Z,100652.78
2023-05-10T01:25:07.737Z,100661.47
2023-05-10T01:28:18.922Z,100652.97
2023-05-10T01:31:24.644Z,100646.94
2023-05-10T01:34:33.184Z,100656.38
2023-05-10T01:37:41.992Z,100655.16
2023-05-10T01:40:51.944Z,100651.56
2023-05-10T01:43:57.074Z,100653.94
2023-05-10T01:47:04.287Z,100651.25
2023-05-10T01:50:11.199Z,100653.84
2023-05-10T01:53:14.649Z,100646.69
2023-05-10T01:56:17.963Z,100644.81
2023-05-10T01:59:22.642Z,100649.69
2023-05-10T02:02:25.888Z,100641.03
2023-05-10T02:05:30.145Z,100647.19
2023-05-10T02:08:34.073Z,100640.22
2023-05-10T02:11:38.675Z,100636.72
2023-05-10T02:14:42.477Z,100638.28
2023-05-10T02:17:47.265Z,100632.12
2023-05-10T02:20:50.176Z,100621.59
2023-05-10T02:23:54.714Z,100621.22
2023-05-10T02:26:57.211Z,100627.13
2023-05-10T02:30:00.004Z,100615.91
2023-05-10T02:33:04.623Z,100621.03
2023-05-10T02:36:08.380Z,100624.41
2023-05-10T02:39:14.498Z,100626.97
2023-05-10T02:42:19.436Z,100625.28
2023-05-10T02:45:24.194Z,100622.53
2023-05-10T02:48:27.284Z,100621.66
2023-05-10T02:51:35.170Z,100624.19
2023-05-10T02:54:42.237Z,100622.41
2023-05-10T02:57:49.808Z,100631.44
2023-05-10T03:00:52.382Z,100626.41
2023-05-10T03:03:55.111Z,100631.69
2023-05-10T03:06:57.666Z,100628.94
2023-05-10T03:10:01.129Z,100623.56
2023-05-10T03:13:13.300Z,100619.97
2023-05-10T03:16:17.791Z,100631.34
2023-05-10T03:19:28.828Z,100626.41
2023-05-10T03:22:38.680Z,100624.66
2023-05-10T03:25:42.241Z,100630.31
2023-05-10T03:28:44.776Z,100629.78
2023-05-10T03:31:47.680Z,100624.59
2023-05-10T03:34:50.527Z,100619.69
2023-05-10T03:37:53.207Z,100620.66
2023-05-10T03:40:56.697Z,100623.41
2023-05-10T03:43:59.323Z,100622.22
2023-05-10T03:47:01.688Z,100624.06
2023-05-10T03:50:04.962Z,100625.38
2023-05-10T03:53:07.392Z,100627.50
2023-05-10T03:56:09.974Z,100624.56
2023-05-10T03:59:12.368Z,100629.03
2023-05-10T04:02:15.044Z,100633.97
2023-05-10T04:05:17.717Z,100626.09
2023-05-10T04:08:20.106Z,100622.44
2023-05-10T04:11:23.046Z,100629.22
2023-05-10T04:14:25.627Z,100626.34
2023-05-10T04:17:28.216Z,100627.37
2023-05-10T04:20:30.628Z,100620.06
2023-05-10T04:23:33.206Z,100626.38
2023-05-10T04:26:35.541Z,100628.50
2023-05-10T04:29:39.388Z,100629.50
2023-05-10T04:32:41.705Z,100627.28
2023-05-10T04:35:45.680Z,100634.06
2023-05-10T04:38:48.212Z,100635.72
2023-05-10T04:41:50.857Z,100635.56
2023-05-10T04:44:53.184Z,100634.31
2023-05-10T04:47:56.156Z,100623.25
2023-05-10T04:50:58.568Z,100629.53
2023-05-10T04:54:06.566Z,100630.13
2023-05-10T04:57:09.120Z,100634.66
2023-05-10T05:00:12.362Z,100628.72
2023-05-10T05:03:14.788Z,100632.12
2023-05-10T05:06:17.477Z,100631.13
2023-05-10T05:09:19.784Z,100640.37
2023-05-10T05:12:22.357Z,100634.25
2023-05-10T05:15:24.806Z,100636.06
2023-05-10T05:18:29.992Z,100639.12
2023-05-10T05:21:33.672Z,100635.03
2023-05-10T05:24:37.539Z,100646.34
2023-05-10T05:27:39.772Z,100646.84
2023-05-10T05:30:42.668Z,100646.72
2023-05-10T05:33:45.073Z,100645.69
2023-05-10T05:36:47.732Z,100648.28
2023-05-10T05:39:50.776Z,100651.72
2023-05-10T05:42:53.593Z,100656.53
2023-05-10T05:45:56.150Z,100660.03
2023-05-10T05:48:58.828Z,100659.06
2023-05-10T05:52:04.452Z,100659.00
2023-05-10T05:55:07.215Z,100664.81
2023-05-10T05:58:09.606Z,100664.47
2023-05-10T06:01:12.238Z,100672.41
2023-05-10T06:04:14.949Z,100666.78
2023-05-10T06:07:17.546Z,100671.16
2023-05-10T06:10:20.399Z,100675.16
2023-05-10T06:13:22.734Z,100668.59
2023-05-10T06:16:25.464Z,100676.78
2023-05-10T06:19:28.349Z,100666.06
2023-05-10T06:22:30.994Z,100666.91
2023-05-10T06:25:33.347Z,100662.56
2023-05-10T06:28:36.082Z,100666.78
2023-05-10T06:31:38.502Z,100673.75
2023-05-10T06:34:41.286Z,100674.91
2023-05-10T06:37:43.616Z,100683.91
2023-05-10T06:40:46.221Z,100688.84
2023-05-10T06:43:48.538Z,100679.12
2023-05-10T06:46:51.656Z,100679.69
2023-05-10T06:49:54.061Z,100682.88
2023-05-10T06:52:56.904Z,100680.72
2023-05-10T06:56:19.111Z,100673.78
2023-05-10T06:59:22.671Z,100683.72
2023-05-10T07:02:25.072Z,100681.94
2023-05-10T07:05:29.095Z,100674.47
2023-05-10T07:08:32.185Z,100682.13
2023-05-10T07:11:34.842Z,100684.59
2023-05-10T07:14:37.265Z,100683.09
2023-05-10T07:17:40.842Z,100687.19
2023-05-10T07:20:44.898Z,100680.75
2023-05-10T07:23:47.610Z,100682.56
2023-05-10T07:26:49.955Z,100675.47
2023-05-10T07:29:52.555Z,100674.81
2023-05-10T07:32:54.878Z,100662.66
2023-05-10T07:35:57.501Z,100673.41
2023-05-10T07:38:59.749Z,100669.94
2023-05-10T07:42:02.365Z,100660.84
2023-05-10T07:45:05.027Z,100663.94
2023-05-10T07:48:07.727Z,100669.22
2023-05-10T07:51:10.537Z,100662.72
2023-05-10T07:54:13.736Z,100656.53
2023-05-10T07:57:18.587Z,100653.75
2023-05-10T08:00:21.499Z,100666.69
2023-05-10T08:03:24.455Z,100661.00
2023-05-10T08:06:31.064Z,100662.91
2023-05-10T08:09:34.298Z,100662.59
2023-05-10T08:12:36.579Z,100664.47
2023-05-10T08:15:39.198Z,100655.16
2023-05-10T08:18:41.590Z,100655.69
2023-05-10T08:21:44.210Z,100658.63
2023-05-10T08:24:46.473Z,100667.47
2023-05-10T08:27:49.106Z,100665.34
2023-05-10T08:30:51.529Z,100666.56
2023-05-10T08:33:54.153Z,100671.53
2023-05-10T08:36:56.569Z,100664.94
2023-05-10T08:39:59.253Z,100662.28
2023-05-10T08:43:06.369Z,100657.81
2023-05-10T08:46:10.317Z,100652.88
2023-05-10T08:49:14.185Z,100654.13
2023-05-10T08:52:17.593Z,100653.06
2023-05-10T08:55:19.972Z,100651.78
2023-05-10T08:58:22.663Z,100659.09
2023-05-10T09:01:25.548Z,100659.12
2023-05-10T09:04:29.023Z,100660.69
2023-05-10T09:07:31.728Z,100655.50
2023-05-10T09:10:34.371Z,100657.53
2023-05-10T09:13:37.135Z,100652.28
2023-05-10T09:16:39.863Z,100648.41
2023-05-10T09:19:42.419Z,100658.59
2023-05-10T09:22:45.668Z,100661.31
2023-05-10T09:25:48.626Z,100652.56
2023-05-10T09:28:51.508Z,100643.47
2023-05-10T09:31:55.878Z,100643.03
2023-05-10T09:34:58.521Z,100655.03
2023-05-10T09:38:02.027Z,100652.41
2023-05-10T09:41:05.082Z,100640.94
2023-05-10T09:44:08.444Z,100627.72
2023-05-10T09:47:11.021Z,100640.09
2023-05-10T09:50:13.373Z,100630.66
2023-05-10T09:53:16.886Z,100624.97
2023-05-10T09:56:46.418Z,100627.91
2023-05-10T09:59:49.244Z,100637.78
2023-05-10T10:02:59.400Z,100626.63
2023-05-10T10:06:01.989Z,100624.28
2023-05-10T10:09:04.805Z,100622.44
2023-05-10T10:12:07.488Z,100612.69
2023-05-10T10:15:10.488Z,100611.38
2023-05-10T10:18:19.065Z,100611.97
2023-05-10T10:21:21.562Z,100617.50
2023-05-10T10:24:24.147Z,100611.50
2023-05-10T10:27:50.012Z,100606.66
2023-05-10T10:30:54.683Z,100601.91
2023-05-10T10:34:00.449Z,100606.94
2023-05-10T10:37:05.764Z,100604.13
2023-05-10T10:40:27.258Z,100593.66
2023-05-10T10:43:30.537Z,100595.28
2023-05-10T10:46:35.351Z,100589.25
2023-05-10T10:49:40.826Z,100589.84
2023-05-10T10:52:46.977Z,100579.56
2023-05-10T10:55:49.822Z,100592.50
2023-05-10T10:58:53.496Z,100575.84
2023-05-10T11:01:56.269Z,100578.63
2023-05-10T11:04:58.703Z,100572.44
2023-05-10T11:08:01.596Z,100565.19
2023-05-10T11:11:08.085Z,100556.00
2023-05-10T11:14:10.906Z,100561.59
2023-05-10T11:17:30.262Z,100557.88
2023-05-10T11:20:40.351Z,100552.69
2023-05-10T11:23:49.103Z,100556.78
2023-05-10T11:26:52.714Z,100544.69
2023-05-10T11:29:55.253Z,100556.22
2023-05-10T11:32:57.893Z,100538.28
2023-05-10T11:36:00.306Z,100536.19
2023-05-10T11:39:03.976Z,100532.59
2023-05-10T11:42:06.334Z,100528.75
2023-05-10T11:45:09.147Z,100527.66
2023-05-10T11:48:11.574Z,100535.22
2023-05-10T11:51:14.304Z,100527.81
2023-05-10T11:54:16.640Z,100526.03
2023-05-10T11:57:19.988Z,100534.81
2023-05-10T12:00:22.460Z,100524.91
2023-05-10T12:03:25.234Z,100521.87
2023-05-10T12:06:28.730Z,100532.13
2023-05-10T12:09:40.087Z,100537.28
2023-05-10T12:12:46.556Z,100531.87
2023-05-10T12:15:49.357Z,100528.41
2023-05-10T12:18:52.491Z,100522.19
2023-05-10T12:21:55.237Z,100524.03
2023-05-10T12:24:59.609Z,100521.75
2023-05-10T12:28:04.731Z,100529.47
2023-05-10T12:31:07.874Z,100521.25
2023-05-10T12:34:10.383Z,100513.91
2023-05-10T12:37:13.300Z,100510.84
2023-05-10T12:40:16.100Z,100523.34
2023-05-10T12:43:18.696Z,100511.13
2023-05-10T12:46:21.331Z,100501.06
2023-05-10T12:49:23.750Z,100514.69
2023-05-10T12:52:27.033Z,100500.34
2023-05-10T12:55:29.255Z,100490.88
2023-05-10T12:58:35.856Z,100502.50
2023-05-10T13:01:38.728Z,100491.69
2023-05-10T13:04:41.846Z,100495.81
2023-05-10T13:07:44.932Z,100487.44
2023-05-10T13:10:47.542Z,100488.25
2023-05-10T13:13:49.832Z,100475.88
2023-05-10T13:16:52.444Z,100473.66
2023-05-10T13:19:54.784Z,100478.00
2023-05-10T13:22:57.416Z,100472.34
2023-05-10T13:25:59.901Z,100472.97
2023-05-10T13:29:02.472Z,100465.81
2023-05-10T13:32:04.966Z,100454.34
2023-05-10T13:35:07.892Z,100450.19
2023-05-10T13:38:11.735Z,100438.00
2023-05-10T13:41:14.524Z,100443.50
2023-05-10T13:44:16.897Z,100443.94
2023-05-10T13:47:19.601Z,100430.69
2023-05-10T13:50:21.892Z,100437.28
2023-05-10T13:53:24.425Z,100433.34
2023-05-10T13:56:26.748Z,100436.03
2023-05-10T13:59:29.783Z,100443.87
2023-05-10T14:02:32.353Z,100429.78
2023-05-10T14:05:35.011Z,100417.91
2023-05-10T14:08:37.520Z,100422.78
2023-05-10T14:11:44.003Z,100414.16
2023-05-10T14:14:46.516Z,100421.53
2023-05-10T14:17:49.173Z,100409.16
2023-05-10T14:20:51.547Z,100420.59
2023-05-10T14:23:55.399Z,100412.41
2023-05-10T14:26:58.006Z,100400.41
2023-05-10T14:30:00.664Z,100394.06
2023-05-10T14:33:03.661Z,100404.00
2023-05-10T14:36:07.241Z,100394.53
2023-05-10T14:39:11.123Z,100401.69
2023-05-10T14:42:13.660Z,100401.12
2023-05-10T14:45:16.167Z,100400.88
2023-05-10T14:48:19.062Z,100403.31
2023-05-10T14:51:22.787Z,100403.13
2023-05-10T14:54:25.421Z,100395.47
2023-05-10T14:57:30.552Z,100400.25
2023-05-10T15:00:33.153Z,100408.16
2023-05-10T15:03:38.696Z,100405.25
2023-05-10T15:06:42.030Z,100406.00
2023-05-10T15:09:44.368Z,100400.91
2023-05-10T15:12:47.203Z,100399.78
2023-05-10T15:15:49.564Z,100413.37
2023-05-10T15:18:52.530Z,100406.91
2023-05-10T15:21:54.883Z,100396.69
2023-05-10T15:24:57.411Z,100404.62
2023-05-10T15:27:59.632Z,100399.59
2023-05-10T15:31:02.197Z,100407.72
2023-05-10T15:34:04.516Z,100402.66
2023-05-10T15:37:07.256Z,100396.19
2023-05-10T15:40:09.701Z,100400.63
2023-05-10T15:43:12.461Z,100400.41
2023-05-10T15:46:14.839Z,100404.56
2023-05-10T15:49:17.381Z,100387.09
2023-05-10T15:52:21.079Z,100391.22
2023-05-10T15:55:23.598Z,100391.59
2023-05-10T15:58:25.850Z,100379.37
2023-05-10T16:01:28.750Z,100380.75
2023-05-10T16:04:31.367Z,100379.00
2023-05-10T16:07:34.062Z,100387.13
2023-05-10T16:10:36.902Z,100393.22
2023-05-10T16:13:39.172Z,100388.03
2023-05-10T16:16:42.103Z,100397.22
2023-05-10T16:19:44.642Z,100392.56
2023-05-10T16:22:47.387Z,100393.09
2023-05-10T16:25:49.726Z,100390.34
2023-05-10T16:28:52.336Z,100394.38
2023-05-10T16:31:55.077Z,100402.72
2023-05-10T16:34:58.478Z,100394.34
2023-05-10T16:38:01.085Z,100398.78
2023-05-10T16:41:03.826Z,100396.53
2023-05-10T16:44:06.222Z,100407.22
2023-05-10T16:47:08.771Z,100397.94
2023-05-10T16:50:11.561Z,100403.22
2023-05-10T16:53:14.287Z,100406.87
2023-05-10T16:56:18.389Z,100400.41
2023-05-10T16:59:20.987Z,100407.75
2023-05-10T17:02:23.677Z,100403.28
2023-05-10T17:05:26.462Z,100417.00
2023-05-10T17:08:28.741Z,100422.84
2023-05-10T17:11:31.901Z,100421.19
2023-05-10T17:14:34.666Z,100416.03
2023-05-10T17:17:37.536Z,100420.28
2023-05-10T17:20:39.852Z,100421.44
2023-05-10T17:23:42.462Z,100427.59
2023-05-10T17:26:45.023Z,100427.31
2023-05-10T17:29:47.612Z,100432.69
2023-05-10T17:32:51.235Z,100438.34
2023-05-10T17:35:53.892Z,100433.53
2023-05-10T17:38:56.319Z,100429.75
2023-05-10T17:41:58.972Z,100438.50
2023-05-10T17:45:01.309Z,100433.59
2023-05-10T17:48:04.307Z,100439.41
2023-05-10T17:51:06.962Z,100439.78
2023-05-10T17:54:09.653Z,100443.87
2023-05-10T17:57:11.871Z,100441.91
2023-05-10T18:00:14.657Z,100443.84
2023-05-10T18:03:17.352Z,100447.59
2023-05-10T18:06:19.956Z,100445.81
2023-05-10T18:09:22.557Z,100446.59
2023-05-10T18:12:24.937Z,100453.78
2023-05-10T18:15:27.859Z,100449.50
2023-05-10T18:18:30.427Z,100452.97
2023-05-10T18:21:33.190Z,100467.91
2023-05-10T18:24:41.014Z,100460.25
2023-05-10T18:27:43.943Z,100464.50
2023-05-10T18:30:46.709Z,100466.69
2023-05-10T18:33:49.760Z,100466.19
2023-05-10T18:36:52.516Z,100468.19
2023-05-10T18:39:55.793Z,100474.81
2023-05-10T18:42:58.447Z,100476.25
2023-05-10T18:46:01.615Z,100475.97
2023-05-10T18:49:05.394Z,100478.69
2023-05-10T18:52:08.327Z,100482.41
2023-05-10T18:55:11.062Z,100485.09
2023-05-10T18:58:14.033Z,100494.34
2023-05-10T19:01:16.948Z,100496.38
2023-05-10T19:04:20.160Z,100486.88
2023-05-10T19:07:25.754Z,100492.91
2023-05-10T19:10:28.844Z,100493.50
2023-05-10T19:13:31.544Z,100496.53
2023-05-10T19:16:35.643Z,100499.38
2023-05-10T19:19:38.688Z,100506.50
2023-05-10T19:22:51.527Z,100503.88
2023-05-10T19:26:01.274Z,100501.16
2023-05-10T19:29:05.054Z,100507.09
2023-05-10T19:32:07.946Z,100494.13
2023-05-10T19:35:13.187Z,100504.25
2023-05-10T19:38:16.510Z,100506.19
2023-05-10T19:41:19.392Z,100505.25
2023-05-10T19:44:23.051Z,100504.41
2023-05-10T19:47:26.077Z,100502.78
2023-05-10T19:50:28.844Z,100500.34
2023-05-10T19:53:32.307Z,100499.16
2023-05-10T19:56:35.123Z,100505.72
2023-05-10T19:59:38.342Z,100492.88
2023-05-10T20:02:40.962Z,100492.34
2023-05-10T20:05:43.868Z,100487.78
2023-05-10T20:08:46.589Z,100500.19
2023-05-10T20:11:49.290Z,100502.50
2023-05-10T20:14:51.735Z,100499.25
2023-05-10T20:17:55.112Z,100497.63
2023-05-10T20:20:58.857Z,100502.25
2023-05-10T20:24:01.984Z,100503.28
2023-05-10T20:27:04.655Z,100503.81
2023-05-10T20:30:07.755Z,100505.44
2023-05-10T20:33:10.584Z,100506.50
2023-05-10T20:36:14.969Z,100503.28
2023-05-10T20:39:17.710Z,100501.56
2023-05-10T20:42:21.686Z,100506.97
2023-05-10T20:45:24.423Z,100505.28
2023-05-10T20:48:27.332Z,100500.31
2023-05-10T20:51:30.452Z,100500.19
2023-05-10T20:54:33.078Z,100503.72
2023-05-10T20:57:35.460Z,100503.66
2023-05-10T21:00:38.134Z,100505.56
2023-05-10T21:03:43.299Z,100508.41
2023-05-10T21:06:45.963Z,100502.19
2023-05-10T21:09:48.247Z,100501.31
2023-05-10T21:12:50.775Z,100501.50
2023-05-10T21:15:53.465Z,100497.16
2023-05-10T21:18:56.089Z,100502.59
2023-05-10T21:21:59.740Z,100505.66
2023-05-10T21:25:02.303Z,100497.47
2023-05-10T21:28:05.326Z,100505.81
2023-05-10T21:31:08.041Z,100502.75
2023-05-10T21:34:10.432Z,100505.44
2023-05-10T21:37:12.959Z,100502.28
2023-05-10T21:40:15.515Z,100505.25
2023-05-10T21:43:18.272Z,100502.91
2023-05-10T21:46:20.577Z,100503.12
2023-05-10T21:49:23.284Z,100506.47
2023-05-10T21:52:25.598Z,100504.41
2023-05-10T21:55:28.201Z,100501.03
2023-05-10T21:58:30.623Z,100504.72
2023-05-10T22:01:33.554Z,100499.94
2023-05-10T22:04:36.191Z,100504.53
2023-05-10T22:07:38.482Z,100500.38
2023-05-10T22:10:41.085Z,100506.47
2023-05-10T22:13:43.490Z,100510.91
2023-05-10T22:16:46.103Z,100506.53
2023-05-10T22:19:48.415Z,100504.16
2023-05-10T22:22:51.257Z,100513.66
2023-05-10T22:25:53.571Z,100513.09
2023-05-10T22:28:56.113Z,100506.13
2023-05-10T22:31:58.467Z,100506.31
2023-05-10T22:35:01.066Z,100513.31
2023-05-10T22:38:03.465Z,100513.66
2023-05-10T22:41:06.596Z,100516.94
2023-05-10T22:44:08.908Z,100515.59
2023-05-10T22:47:11.517Z,100516.84
2023-05-10T22:50:15.837Z,100521.03
2023-05-10T22:53:18.535Z,100517.69
2023-05-10T22:56:22.065Z,100516.50
2023-05-10T22:59:24.694Z,100521.22
2023-05-10T23:02:27.294Z,100522.69
2023-05-10T23:05:29.971Z,100524.41
2023-05-10T23:08:32.281Z,100526.69
2023-05-10T23:11:34.868Z,100524.53
2023-05-10T23:14:37.222Z,100527.81
2023-05-10T23:17:39.846Z,100526.13
2023-05-10T23:20:42.905Z,100529.31
2023-05-10T23:23:47.020Z,100525.59
2023-05-10T23:26:49.412Z,100529.69
2023-05-10T23:29:55.578Z,100530.44
2023-05-10T23:32:58.007Z,100528.37
2023-05-10T23:36:00.932Z,100528.06
2023-05-10T23:39:03.272Z,100529.56
2023-05-10T23:42:06.157Z,100530.88
2023-05-10T23:45:08.702Z,100535.19
2023-05-10T23:48:11.643Z,100526.78
2023-05-10T23:51:14.030Z,100541.94
2023-05-10T23:54:16.624Z,100535.16
2023-05-10T23:57:19.354Z,100534.00
